Time;durP1;ratioP1;P1;durP2;ratioP2;P2;SDS_P1;SDS_P2;PMS_P1;PMS_P2;Temp;Humidity;BMP_temperature;BMP_pressure;BME280_temperature;BME280_humidity;BME280_pressure;Samples;Min_cycle;Max_cycle;Signal;HPM_P1;HPM_P2
2023/06/14 00:02:14;;;;;;;6.90;3.20;;;16.70;62.50;;;;;;5006724;28;20030;-70
2023/06/14 00:04:41;;;;;;;6.03;3.17;;;16.70;62.80;;;;;;5008665;28;20029;-70
2023/06/14 00:07:10;;;;;;;4.03;3.03;;;16.70;63.20;;;;;;5009165;28;20026;-69
2023/06/14 00:09:36;;;;;;;7.18;2.95;;;16.60;63.60;;;;;;5012335;28;20448;-71
2023/06/14 00:12:02;;;;;;;7.05;3.67;;;16.60;63.90;;;;;;5010065;28;20081;-70
2023/06/14 00:14:27;;;;;;;9.23;3.40;;;16.60;64.20;;;;;;5000388;28;20032;-70
2023/06/14 00:16:58;;;;;;;5.82;2.78;;;16.50;64.50;;;;;;4994192;28;20060;-70
2023/06/14 00:19:24;;;;;;;5.47;3.08;;;16.40;64.60;;;;;;5004584;28;20030;-70
2023/06/14 00:21:51;;;;;;;6.28;4.05;;;16.40;64.90;;;;;;4994707;28;20079;-70
2023/06/14 00:24:17;;;;;;;6.32;3.25;;;16.40;64.90;;;;;;5012781;28;20109;-70
2023/06/14 00:26:43;;;;;;;7.28;3.50;;;16.30;65.30;;;;;;5009979;28;20532;-70
2023/06/14 00:29:08;;;;;;;10.02;3.65;;;16.20;65.70;;;;;;5008838;28;20084;-72
2023/06/14 00:31:34;;;;;;;7.60;3.50;;;16.20;67.20;;;;;;5006695;28;20037;-71
2023/06/14 00:34:00;;;;;;;7.53;3.47;;;16.20;67.10;;;;;;5006698;28;20049;-71
2023/06/14 00:36:26;;;;;;;8.15;4.20;;;16.20;67.90;;;;;;5006724;28;20030;-70
2023/06/14 00:38:51;;;;;;;8.65;3.67;;;16.10;68.30;;;;;;5006324;28;20527;-71
2023/06/14 00:41:17;;;;;;;6.80;4.03;;;16.00;68.70;;;;;;5007323;28;20050;-71
2023/06/14 00:43:42;;;;;;;6.00;4.15;;;16.00;69.00;;;;;;4991575;28;20110;-71
2023/06/14 00:46:08;;;;;;;8.35;4.38;;;15.90;69.30;;;;;;5006029;28;20229;-71
2023/06/14 00:48:36;;;;;;;5.57;3.83;;;15.90;69.40;;;;;;5004352;28;20143;-71
2023/06/14 00:51:03;;;;;;;5.07;3.25;;;15.90;69.20;;;;;;5005773;28;20611;-71
2023/06/14 00:53:31;;;;;;;5.45;3.05;;;15.90;68.50;;;;;;5003175;28;20117;-72
2023/06/14 00:55:57;;;;;;;7.18;3.03;;;15.90;68.50;;;;;;5010539;28;20030;-71
2023/06/14 00:58:23;;;;;;;5.43;2.75;;;15.80;67.50;;;;;;5008158;28;20033;-71
2023/06/14 01:00:48;;;;;;;7.22;3.20;;;15.80;67.60;;;;;;5009038;28;20412;-71
2023/06/14 01:03:21;;;;;;;7.35;3.25;;;15.80;67.40;;;;;;5009568;28;20172;-71
2023/06/14 01:05:50;;;;;;;3.65;2.78;;;15.70;67.10;;;;;;5005141;28;20686;-70
2023/06/14 01:08:28;;;;;;;4.65;3.28;;;15.70;67.20;;;;;;4994057;28;20121;-71
2023/06/14 01:11:09;;;;;;;4.82;3.03;;;15.70;67.20;;;;;;5011682;28;20022;-72
2023/06/14 01:13:38;;;;;;;4.32;2.80;;;15.70;67.20;;;;;;5013005;28;20021;-70
2023/06/14 01:16:06;;;;;;;6.45;3.58;;;15.70;67.10;;;;;;5010807;28;20022;-71
2023/06/14 01:18:33;;;;;;;4.85;3.15;;;15.60;67.30;;;;;;5005627;28;20030;-71
2023/06/14 01:20:59;;;;;;;9.30;3.58;;;15.60;67.40;;;;;;5010460;28;20061;-71
2023/06/14 01:23:25;;;;;;;4.95;3.00;;;15.50;67.30;;;;;;5012062;28;20061;-72
2023/06/14 01:25:55;;;;;;;9.40;3.30;;;15.60;67.10;;;;;;5007945;28;20023;-71
2023/06/14 01:28:21;;;;;;;5.65;2.70;;;15.50;67.50;;;;;;5007048;28;20022;-72
2023/06/14 01:30:54;;;;;;;4.88;3.17;;;15.50;66.80;;;;;;5010455;28;20033;-72
2023/06/14 01:33:27;;;;;;;8.38;3.47;;;15.50;66.90;;;;;;4993458;28;20030;-72
2023/06/14 01:35:54;;;;;;;9.15;3.22;;;15.50;66.90;;;;;;4988841;28;20029;-72
2023/06/14 01:38:23;;;;;;;6.90;3.65;;;15.40;66.70;;;;;;5011733;23;20513;-76
2023/06/14 01:40:50;;;;;;;5.03;3.20;;;15.40;67.00;;;;;;5004888;28;20077;-76
2023/06/14 01:43:17;;;;;;;7.22;3.10;;;15.40;66.70;;;;;;5006496;28;20029;-77
2023/06/14 01:45:45;;;;;;;5.88;3.10;;;15.40;66.90;;;;;;5015133;28;20101;-76
2023/06/14 01:48:11;;;;;;;7.03;3.00;;;15.40;67.00;;;;;;5015134;28;20078;-76
2023/06/14 01:50:37;;;;;;;5.15;2.75;;;15.30;67.00;;;;;;5007259;28;20029;-76
2023/06/14 01:53:02;;;;;;;4.63;3.15;;;15.30;67.60;;;;;;5012288;28;20105;-76
2023/06/14 01:55:37;;;;;;;6.30;3.15;;;15.30;67.20;;;;;;5006802;28;20033;-76
2023/06/14 01:58:03;;;;;;;3.75;2.85;;;15.20;67.30;;;;;;5009944;28;20858;-76
2023/06/14 02:00:29;;;;;;;5.18;3.05;;;15.20;67.50;;;;;;5010873;28;20030;-75
2023/06/14 02:02:55;;;;;;;4.45;2.85;;;15.10;67.70;;;;;;5008124;28;20477;-76
2023/06/14 02:05:21;;;;;;;4.35;3.42;;;15.10;68.30;;;;;;5009557;28;20053;-76
2023/06/14 02:07:47;;;;;;;9.45;3.55;;;15.10;69.30;;;;;;5008662;28;20103;-75
2023/06/14 02:10:13;;;;;;;4.50;3.40;;;15.00;70.40;;;;;;5009254;28;20025;-76
2023/06/14 02:12:38;;;;;;;7.78;3.95;;;15.00;71.60;;;;;;5008822;28;20027;-75
2023/06/14 02:15:05;;;;;;;9.15;3.75;;;14.90;72.00;;;;;;5006812;28;20029;-75
2023/06/14 02:17:31;;;;;;;6.22;4.18;;;14.90;72.60;;;;;;5009035;28;20099;-75
2023/06/14 02:19:57;;;;;;;8.82;4.43;;;14.80;73.20;;;;;;5007386;28;20065;-76
2023/06/14 02:22:22;;;;;;;6.47;4.20;;;14.80;73.70;;;;;;5014105;28;20035;-75
2023/06/14 02:24:48;;;;;;;4.78;3.88;;;14.80;73.80;;;;;;5004109;28;20036;-76
2023/06/14 02:27:14;;;;;;;6.25;3.75;;;14.60;73.60;;;;;;5006783;28;20120;-76
2023/06/14 02:29:40;;;;;;;7.50;3.97;;;14.60;73.60;;;;;;5004758;28;20532;-76
2023/06/14 02:32:07;;;;;;;8.10;3.80;;;14.60;73.70;;;;;;5010314;28;20033;-76
2023/06/14 02:34:33;;;;;;;5.65;3.28;;;14.60;73.90;;;;;;5007603;28;20026;-75
2023/06/14 02:36:59;;;;;;;4.85;3.42;;;14.50;73.80;;;;;;5004094;28;20480;-77
2023/06/14 02:39:25;;;;;;;6.30;3.88;;;14.40;74.60;;;;;;5008713;28;20041;-76
2023/06/14 02:41:51;;;;;;;7.03;3.72;;;14.40;74.40;;;;;;5023141;28;20026;-76
2023/06/14 02:44:23;;;;;;;7.57;4.07;;;14.40;74.60;;;;;;5008425;28;20026;-76
2023/06/14 02:46:49;;;;;;;7.20;3.90;;;14.30;74.90;;;;;;5003630;28;20108;-76
2023/06/14 02:49:14;;;;;;;5.88;3.92;;;14.30;75.30;;;;;;5008506;28;20112;-77
2023/06/14 02:51:40;;;;;;;5.60;4.03;;;14.30;75.50;;;;;;5010472;28;20033;-76
2023/06/14 02:54:06;;;;;;;8.70;4.47;;;14.30;75.80;;;;;;5005733;28;20022;-76
2023/06/14 02:56:32;;;;;;;4.88;3.45;;;14.30;75.90;;;;;;5007779;28;20057;-75
2023/06/14 02:58:58;;;;;;;7.07;3.58;;;14.20;76.00;;;;;;5011940;28;20022;-76
2023/06/14 03:01:33;;;;;;;5.25;3.60;;;14.20;75.80;;;;;;5010277;28;20081;-76
2023/06/14 03:04:03;;;;;;;6.70;3.35;;;14.20;75.80;;;;;;5007689;28;20030;-76
2023/06/14 03:06:33;;;;;;;6.45;3.72;;;14.20;75.50;;;;;;5024306;28;20030;-76
2023/06/14 03:09:04;;;;;;;5.22;3.63;;;14.20;75.50;;;;;;5001239;28;20836;-75
2023/06/14 03:11:31;;;;;;;7.28;3.50;;;14.20;75.00;;;;;;4995661;28;20034;-75
2023/06/14 03:13:57;;;;;;;7.75;3.50;;;14.10;73.80;;;;;;5009543;28;20026;-76
2023/06/14 03:16:24;;;;;;;5.25;2.90;;;14.10;73.60;;;;;;5010032;28;20030;-76
2023/06/14 03:18:52;;;;;;;4.80;3.13;;;14.10;73.80;;;;;;5011201;28;20018;-76
2023/06/14 03:21:21;;;;;;;6.53;3.05;;;14.00;73.60;;;;;;5012049;28;21324;-76
2023/06/14 03:23:48;;;;;;;7.57;3.88;;;14.00;73.60;;;;;;5027027;28;20076;-76
2023/06/14 03:26:17;;;;;;;4.32;3.30;;;14.00;73.60;;;;;;5009214;28;20066;-76
2023/06/14 03:28:44;;;;;;;4.95;2.85;;;13.90;73.50;;;;;;5006208;28;20033;-76
2023/06/14 03:31:10;;;;;;;6.90;3.00;;;13.90;73.50;;;;;;5013610;28;20022;-76
2023/06/14 03:33:35;;;;;;;7.65;3.60;;;13.90;73.40;;;;;;5011273;28;20139;-76
2023/06/14 03:36:02;;;;;;;6.75;3.17;;;13.90;73.40;;;;;;5009336;28;20410;-76
2023/06/14 03:38:28;;;;;;;6.45;3.83;;;13.90;73.40;;;;;;5012966;28;20025;-76
2023/06/14 03:40:54;;;;;;;6.95;3.50;;;13.90;73.40;;;;;;5011930;28;20383;-76
2023/06/14 03:43:19;;;;;;;7.38;3.58;;;13.90;73.40;;;;;;5011547;28;20041;-76
2023/06/14 03:45:45;;;;;;;5.78;3.33;;;13.80;73.50;;;;;;5008497;28;20121;-76
2023/06/14 03:48:11;;;;;;;8.68;3.55;;;13.80;73.60;;;;;;5007052;28;20026;-76
2023/06/14 03:50:40;;;;;;;7.30;3.65;;;13.80;73.80;;;;;;5008121;28;20037;-75
2023/06/14 03:53:06;;;;;;;6.30;4.18;;;13.80;74.00;;;;;;5009021;28;20036;-75
2023/06/14 03:55:32;;;;;;;5.35;3.70;;;13.70;74.00;;;;;;5011867;28;20072;-75
2023/06/14 03:57:58;;;;;;;8.48;3.53;;;13.70;74.20;;;;;;5008149;28;20017;-75
2023/06/14 04:00:24;;;;;;;6.55;3.90;;;13.70;74.60;;;;;;5007444;28;20425;-75
2023/06/14 04:02:50;;;;;;;7.82;3.63;;;13.70;74.60;;;;;;5006574;28;20033;-75
2023/06/14 04:05:16;;;;;;;8.35;3.60;;;13.70;74.50;;;;;;5008027;28;20030;-75
2023/06/14 04:07:45;;;;;;;6.88;3.75;;;13.70;74.30;;;;;;5007304;28;20030;-75
2023/06/14 04:10:16;;;;;;;9.02;3.92;;;13.70;74.10;;;;;;5010603;28;20415;-75
2023/06/14 04:12:42;;;;;;;8.00;3.70;;;13.80;74.10;;;;;;5013418;28;20029;-75
2023/06/14 04:15:09;;;;;;;8.55;4.20;;;13.70;74.60;;;;;;5006510;28;20089;-75
2023/06/14 04:17:34;;;;;;;6.38;3.95;;;13.80;75.70;;;;;;5007681;28;20029;-75
2023/06/14 04:20:01;;;;;;;8.40;3.65;;;13.80;75.70;;;;;;5007201;28;20037;-75
2023/06/14 04:22:30;;;;;;;8.68;4.00;;;13.80;75.30;;;;;;5008610;28;20034;-75
2023/06/14 04:24:56;;;;;;;6.10;3.75;;;13.90;75.90;;;;;;5010017;28;20033;-75
2023/06/14 04:27:25;;;;;;;7.55;4.13;;;13.90;75.90;;;;;;5005893;28;20037;-75
2023/06/14 04:29:59;;;;;;;7.57;4.47;;;13.90;76.00;;;;;;5008193;28;20037;-75
2023/06/14 04:32:26;;;;;;;7.80;4.05;;;14.00;76.10;;;;;;5007980;28;20604;-75
2023/06/14 04:34:54;;;;;;;9.65;3.90;;;14.10;76.10;;;;;;5004921;28;20638;-75
2023/06/14 04:37:21;;;;;;;6.07;4.00;;;14.10;75.70;;;;;;4999951;28;20022;-76
2023/06/14 04:39:47;;;;;;;7.15;4.13;;;14.20;75.40;;;;;;5008161;28;20064;-75
2023/06/14 04:42:14;;;;;;;7.25;4.15;;;14.30;75.80;;;;;;5008259;28;20026;-77
2023/06/14 04:44:41;;;;;;;10.38;4.13;;;14.30;75.90;;;;;;5005320;28;20091;-77
2023/06/14 04:47:07;;;;;;;9.52;3.35;;;14.40;75.80;;;;;;5008423;28;20022;-77
2023/06/14 04:49:33;;;;;;;7.53;3.20;;;14.50;74.40;;;;;;5006811;28;20037;-77
2023/06/14 04:52:01;;;;;;;11.93;3.58;;;14.50;74.10;;;;;;5009664;28;20036;-77
2023/06/14 04:54:27;;;;;;;5.88;4.13;;;14.60;72.80;;;;;;5006144;28;20033;-77
2023/06/14 04:56:55;;;;;;;5.53;3.30;;;14.70;72.60;;;;;;5005369;28;20027;-77
2023/06/14 04:59:22;;;;;;;8.02;3.60;;;14.80;72.30;;;;;;5010414;28;20529;-77
2023/06/14 05:01:49;;;;;;;8.02;4.03;;;14.90;72.20;;;;;;5020319;28;20026;-77
2023/06/14 05:04:15;;;;;;;7.57;3.47;;;15.00;72.20;;;;;;5006384;28;20041;-77
2023/06/14 05:06:44;;;;;;;6.63;3.75;;;15.20;72.10;;;;;;5005695;28;20040;-74
2023/06/14 05:09:13;;;;;;;6.13;3.40;;;15.30;72.10;;;;;;5006721;28;20451;-74
2023/06/14 05:11:39;;;;;;;6.07;3.90;;;15.40;71.80;;;;;;5007022;28;20098;-75
2023/06/14 05:14:06;;;;;;;7.72;4.03;;;15.50;71.30;;;;;;5008066;28;20057;-75
2023/06/14 05:16:31;;;;;;;4.85;3.63;;;15.60;71.10;;;;;;5007321;28;20026;-75
2023/06/14 05:18:57;;;;;;;6.80;3.67;;;15.80;70.80;;;;;;5003581;28;20026;-68
2023/06/14 05:21:23;;;;;;;8.48;3.70;;;15.90;70.70;;;;;;5019704;28;20080;-68
2023/06/14 05:23:50;;;;;;;6.78;3.45;;;16.00;70.30;;;;;;5009894;28;20030;-67
2023/06/14 05:26:16;;;;;;;9.55;4.18;;;16.10;70.10;;;;;;5005891;28;20026;-67
2023/06/14 05:28:42;;;;;;;8.70;4.25;;;16.00;70.00;;;;;;5005354;28;20033;-67
2023/06/14 05:31:07;;;;;;;8.35;4.10;;;16.00;70.40;;;;;;5005180;28;20026;-67
2023/06/14 05:33:33;;;;;;;8.35;4.80;;;16.10;70.30;;;;;;5003902;28;20088;-68
2023/06/14 05:35:59;;;;;;;6.43;4.03;;;16.00;70.40;;;;;;5011646;28;20034;-68
2023/06/14 05:38:25;;;;;;;5.85;4.18;;;16.00;70.70;;;;;;5006234;28;20061;-68
2023/06/14 05:40:51;;;;;;;8.05;4.80;;;16.00;70.10;;;;;;5003301;28;20034;-68
2023/06/14 05:43:16;;;;;;;6.85;4.15;;;16.10;69.80;;;;;;5010158;28;20369;-68
2023/06/14 05:45:42;;;;;;;6.03;4.65;;;16.20;69.30;;;;;;5012130;28;20487;-68
2023/06/14 05:48:08;;;;;;;7.38;4.32;;;16.20;68.70;;;;;;5007505;28;20030;-68
2023/06/14 05:50:33;;;;;;;7.68;4.32;;;16.40;68.60;;;;;;5006342;28;20446;-68
2023/06/14 05:52:59;;;;;;;11.23;4.32;;;16.50;68.50;;;;;;5003546;28;20027;-68
2023/06/14 05:55:25;;;;;;;7.97;5.18;;;16.70;67.90;;;;;;5013688;28;20030;-69
2023/06/14 05:57:51;;;;;;;6.30;4.03;;;16.90;67.30;;;;;;5007069;28;20021;-68
2023/06/14 06:00:18;;;;;;;8.00;4.93;;;17.00;66.90;;;;;;5009822;28;20021;-68
2023/06/14 06:02:44;;;;;;;7.43;4.70;;;17.20;66.60;;;;;;5000456;28;20124;-68
2023/06/14 06:05:10;;;;;;;6.03;4.60;;;17.30;66.20;;;;;;5011119;28;20060;-68
2023/06/14 06:07:37;;;;;;;5.85;4.03;;;17.40;66.20;;;;;;5006497;28;20042;-73
2023/06/14 06:10:03;;;;;;;7.57;4.20;;;17.50;65.70;;;;;;5006994;28;20743;-75
2023/06/14 06:12:29;;;;;;;10.15;4.65;;;17.50;65.70;;;;;;5006498;28;20030;-73
2023/06/14 06:14:55;;;;;;;7.88;4.50;;;17.50;65.80;;;;;;5023273;28;20022;-74
2023/06/14 06:17:21;;;;;;;10.60;4.32;;;17.60;65.60;;;;;;5009469;28;20102;-71
2023/06/14 06:19:47;;;;;;;8.20;4.97;;;17.70;65.70;;;;;;5016878;28;20457;-72
2023/06/14 06:22:12;;;;;;;7.07;4.60;;;17.80;65.40;;;;;;5015627;28;20041;-71
2023/06/14 06:24:38;;;;;;;12.70;5.10;;;17.90;65.00;;;;;;5016342;28;20542;-71
2023/06/14 06:27:04;;;;;;;6.15;4.07;;;17.90;64.80;;;;;;5013052;28;20112;-72
2023/06/14 06:29:29;;;;;;;13.02;4.60;;;18.00;64.60;;;;;;5008793;28;20037;-74
2023/06/14 06:31:56;;;;;;;7.75;4.57;;;18.10;64.60;;;;;;5010427;28;20048;-74
2023/06/14 06:34:21;;;;;;;7.47;4.63;;;18.10;64.20;;;;;;5013432;28;20368;-75
2023/06/14 06:36:47;;;;;;;5.32;4.10;;;18.20;63.90;;;;;;5011565;28;20076;-74
2023/06/14 06:39:14;;;;;;;9.77;4.30;;;18.20;63.70;;;;;;5007953;28;20026;-74
2023/06/14 06:41:40;;;;;;;8.65;4.88;;;18.30;63.60;;;;;;5009317;28;20076;-74
2023/06/14 06:44:06;;;;;;;8.02;4.40;;;18.20;63.70;;;;;;5010983;28;20026;-74
2023/06/14 06:46:33;;;;;;;10.68;4.03;;;18.30;63.70;;;;;;5030249;28;20029;-73
2023/06/14 06:49:00;;;;;;;8.18;4.40;;;18.20;63.30;;;;;;5008250;28;20048;-71
2023/06/14 06:51:25;;;;;;;6.32;4.10;;;18.10;63.60;;;;;;5013943;28;20164;-71
2023/06/14 06:53:55;;;;;;;7.30;4.03;;;18.20;64.30;;;;;;5015374;28;20049;-70
2023/06/14 06:56:23;;;;;;;7.45;3.88;;;18.30;64.30;;;;;;5004933;28;20106;-71
2023/06/14 06:58:49;;;;;;;8.20;4.78;;;18.30;64.20;;;;;;5010612;28;20049;-70
2023/06/14 07:01:15;;;;;;;9.05;4.30;;;18.40;64.20;;;;;;5001140;28;20056;-72
2023/06/14 07:03:41;;;;;;;10.48;4.43;;;18.60;64.20;;;;;;5018837;28;20022;-71
2023/06/14 07:06:07;;;;;;;6.78;4.03;;;18.60;63.70;;;;;;5011450;28;20041;-72
2023/06/14 07:08:32;;;;;;;10.35;5.05;;;18.70;63.70;;;;;;5019073;28;20055;-72
2023/06/14 07:10:58;;;;;;;10.15;4.88;;;18.80;63.90;;;;;;4997596;28;20081;-71
2023/06/14 07:13:24;;;;;;;9.38;4.32;;;18.80;63.30;;;;;;5030593;28;20028;-71
2023/06/14 07:15:49;;;;;;;6.82;4.35;;;18.80;63.00;;;;;;5012279;28;20516;-68
2023/06/14 07:18:15;;;;;;;7.85;4.28;;;18.80;63.10;;;;;;5009163;28;20017;-73
2023/06/14 07:20:42;;;;;;;7.55;4.45;;;18.80;62.30;;;;;;5011522;28;20032;-75
2023/06/14 07:23:08;;;;;;;9.43;5.03;;;18.80;62.30;;;;;;5014884;28;20030;-74
2023/06/14 07:25:33;;;;;;;7.68;5.15;;;18.80;62.40;;;;;;5014824;28;20108;-74
2023/06/14 07:27:59;;;;;;;8.30;4.88;;;18.80;62.70;;;;;;5001438;28;20022;-73
2023/06/14 07:30:26;;;;;;;7.90;5.05;;;18.80;63.60;;;;;;4993299;28;20408;-73
2023/06/14 07:32:53;;;;;;;8.75;4.00;;;18.80;63.20;;;;;;5008469;28;20034;-73
2023/06/14 07:35:19;;;;;;;7.13;4.03;;;18.80;63.40;;;;;;5008408;28;20030;-74
2023/06/14 07:37:46;;;;;;;9.30;4.97;;;18.80;63.70;;;;;;5006075;28;20038;-74
2023/06/14 07:40:13;;;;;;;10.77;4.35;;;18.90;63.80;;;;;;5001895;28;20030;-73
2023/06/14 07:42:38;;;;;;;4.32;3.35;;;18.90;63.40;;;;;;5009911;28;20053;-73
2023/06/14 07:45:05;;;;;;;6.00;3.97;;;18.90;62.60;;;;;;5011167;28;20131;-72
2023/06/14 07:47:31;;;;;;;7.45;3.60;;;18.90;62.10;;;;;;5017981;28;20496;-74
2023/06/14 07:49:57;;;;;;;6.15;4.38;;;18.90;61.80;;;;;;5007549;28;20022;-73
2023/06/14 07:52:22;;;;;;;7.47;3.90;;;19.00;62.20;;;;;;5008021;28;20034;-73
2023/06/14 07:54:48;;;;;;;4.95;3.13;;;19.00;62.60;;;;;;5014267;28;20524;-74
2023/06/14 07:57:14;;;;;;;5.93;3.78;;;19.00;62.80;;;;;;5009255;28;20097;-74
2023/06/14 07:59:39;;;;;;;6.80;4.65;;;19.10;63.40;;;;;;5005436;28;20057;-74
2023/06/14 08:02:06;;;;;;;8.20;4.00;;;19.00;63.70;;;;;;5008656;28;20026;-74
2023/06/14 08:04:32;;;;;;;9.93;4.40;;;19.00;63.50;;;;;;5006738;28;20042;-76
2023/06/14 08:06:58;;;;;;;8.05;4.20;;;19.10;63.50;;;;;;5008236;28;20068;-74
2023/06/14 08:09:24;;;;;;;6.63;4.25;;;19.10;64.00;;;;;;5011856;28;20057;-75
2023/06/14 08:11:50;;;;;;;6.57;4.22;;;19.10;64.20;;;;;;5006241;28;20025;-74
2023/06/14 08:14:16;;;;;;;6.95;3.85;;;19.20;64.30;;;;;;5008186;28;20022;-75
2023/06/14 08:16:42;;;;;;;9.77;4.60;;;19.10;64.40;;;;;;5008365;28;20034;-73
2023/06/14 08:19:07;;;;;;;5.75;4.32;;;19.20;64.70;;;;;;5009976;28;20050;-74
2023/06/14 08:21:33;;;;;;;10.93;4.68;;;19.20;64.60;;;;;;5018502;28;20041;-74
2023/06/14 08:24:00;;;;;;;6.43;4.55;;;19.30;64.60;;;;;;5003514;28;20029;-75
2023/06/14 08:26:28;;;;;;;10.20;4.25;;;19.30;64.40;;;;;;5007944;28;20029;-75
2023/06/14 08:28:55;;;;;;;7.70;4.00;;;19.40;63.60;;;;;;5004340;28;20062;-74
2023/06/14 08:31:21;;;;;;;7.80;4.55;;;19.50;63.90;;;;;;5005626;28;20102;-74
2023/06/14 08:33:46;;;;;;;7.05;3.88;;;19.60;63.80;;;;;;5004185;28;20029;-74
2023/06/14 08:36:12;;;;;;;7.60;3.97;;;19.60;63.00;;;;;;5008561;28;20318;-74
2023/06/14 08:38:39;;;;;;;5.90;3.67;;;19.70;62.70;;;;;;5010313;28;20404;-74
2023/06/14 08:41:06;;;;;;;7.85;3.97;;;19.80;61.80;;;;;;5012944;28;20034;-74
2023/06/14 08:43:32;;;;;;;9.82;4.47;;;19.90;61.90;;;;;;5010514;28;20059;-73
2023/06/14 08:46:03;;;;;;;8.02;4.47;;;20.00;61.60;;;;;;5016198;28;20044;-74
2023/06/14 08:48:33;;;;;;;12.85;4.25;;;20.00;61.10;;;;;;5012039;28;20037;-73
2023/06/14 08:51:04;;;;;;;5.53;3.85;;;20.10;61.20;;;;;;5013864;28;20393;-73
2023/06/14 08:53:33;;;;;;;10.77;4.57;;;20.20;60.60;;;;;;5012204;28;20022;-73
2023/06/14 08:56:04;;;;;;;7.13;3.35;;;20.20;60.90;;;;;;5012647;28;20028;-73
2023/06/14 08:58:33;;;;;;;8.07;3.67;;;20.30;60.50;;;;;;5013012;28;20025;-73
2023/06/14 09:01:02;;;;;;;7.13;3.90;;;20.40;60.30;;;;;;5009798;28;20121;-73
2023/06/14 09:03:33;;;;;;;6.07;4.18;;;20.50;60.00;;;;;;5009084;28;20441;-74
2023/06/14 09:05:58;;;;;;;7.03;3.70;;;20.50;60.10;;;;;;5005650;28;20021;-73
2023/06/14 09:08:25;;;;;;;9.95;4.45;;;20.60;60.30;;;;;;5010125;28;20042;-73
2023/06/14 09:10:51;;;;;;;5.25;3.47;;;20.70;60.30;;;;;;5009403;28;20496;-74
2023/06/14 09:13:17;;;;;;;5.90;3.67;;;20.80;59.40;;;;;;5012347;28;20080;-73
2023/06/14 09:15:43;;;;;;;6.25;3.97;;;20.90;59.60;;;;;;5004931;28;20384;-75
2023/06/14 09:18:09;;;;;;;8.55;4.22;;;21.00;58.70;;;;;;5010965;28;20018;-74
2023/06/14 09:20:35;;;;;;;10.43;4.07;;;21.00;59.50;;;;;;5012485;28;20345;-73
2023/06/14 09:23:01;;;;;;;7.63;4.40;;;21.20;59.40;;;;;;5009126;28;20173;-74
2023/06/14 09:25:27;;;;;;;6.90;3.50;;;21.20;59.20;;;;;;5004163;28;20516;-70
2023/06/14 09:27:53;;;;;;;11.80;4.25;;;21.40;58.40;;;;;;5007771;28;20477;-72
2023/06/14 09:30:20;;;;;;;7.45;3.65;;;21.40;58.30;;;;;;5003183;28;20033;-74
2023/06/14 09:32:46;;;;;;;8.27;4.05;;;21.50;58.30;;;;;;5002541;28;20038;-75
2023/06/14 09:35:12;;;;;;;10.63;3.90;;;21.50;58.10;;;;;;5004536;28;20121;-74
2023/06/14 09:37:38;;;;;;;8.15;3.65;;;21.60;58.10;;;;;;5009362;28;20056;-73
2023/06/14 09:40:05;;;;;;;8.07;3.70;;;21.50;57.30;;;;;;5009223;28;20399;-73
2023/06/14 09:42:31;;;;;;;7.20;3.85;;;21.60;57.70;;;;;;5007772;28;20026;-72
2023/06/14 09:44:57;;;;;;;7.70;3.30;;;21.60;57.70;;;;;;5001053;28;20029;-72
2023/06/14 09:47:24;;;;;;;5.00;3.65;;;21.70;56.90;;;;;;5000463;28;20030;-72
2023/06/14 09:49:50;;;;;;;8.77;3.95;;;21.80;55.90;;;;;;5003951;28;20037;-74
2023/06/14 09:52:18;;;;;;;7.22;3.20;;;21.90;55.20;;;;;;5009850;28;20365;-74
2023/06/14 09:54:52;;;;;;;6.10;3.45;;;21.90;54.60;;;;;;5003744;28;20070;-74
2023/06/14 09:57:22;;;;;;;5.05;2.92;;;21.90;55.20;;;;;;5002532;28;20081;-74
2023/06/14 09:59:48;;;;;;;5.70;3.20;;;22.00;55.60;;;;;;5004727;28;20353;-74
2023/06/14 10:02:24;;;;;;;4.90;3.47;;;22.00;53.90;;;;;;5005906;28;20539;-74
2023/06/14 10:05:00;;;;;;;7.95;4.28;;;21.90;54.60;;;;;;5010844;28;20022;-74
2023/06/14 10:07:30;;;;;;;24.15;3.92;;;22.00;56.00;;;;;;5012095;28;20041;-74
2023/06/14 10:09:56;;;;;;;6.43;3.53;;;22.10;52.70;;;;;;5012949;28;20026;-74
2023/06/14 10:12:22;;;;;;;5.43;3.50;;;22.10;53.70;;;;;;5006672;28;20030;-74
2023/06/14 10:14:53;;;;;;;10.15;3.58;;;22.10;54.40;;;;;;5011959;28;20101;-75
2023/06/14 10:17:47;;;;;;;6.50;3.42;;;22.10;55.20;;;;;;5006163;28;20029;-74
2023/06/14 10:20:28;;;;;;;5.85;3.40;;;22.20;55.00;;;;;;5006745;28;20025;-73
2023/06/14 10:23:03;;;;;;;5.15;3.67;;;22.20;54.90;;;;;;5011287;28;20117;-73
2023/06/14 10:25:30;;;;;;;5.50;3.17;;;22.30;54.50;;;;;;5013926;28;20021;-73
2023/06/14 10:28:16;;;;;;;6.40;3.90;;;22.30;54.20;;;;;;5008686;28;20110;-73
2023/06/14 10:31:03;;;;;;;6.28;3.42;;;22.30;54.20;;;;;;5024778;28;20558;-73
2023/06/14 10:33:29;;;;;;;4.60;3.30;;;22.30;54.50;;;;;;5009148;28;20408;-74
2023/06/14 10:36:33;;;;;;;10.50;3.55;;;22.30;54.10;;;;;;5009717;28;20034;-74
2023/06/14 10:39:10;;;;;;;5.30;3.67;;;22.30;53.90;;;;;;4972859;28;20034;-73
2023/06/14 10:41:39;;;;;;;8.25;3.95;;;22.30;53.70;;;;;;5017169;28;20114;-73
2023/06/14 10:44:14;;;;;;;5.82;3.40;;;22.40;53.30;;;;;;5011587;28;20026;-74
2023/06/14 10:46:51;;;;;;;9.73;3.50;;;22.30;53.50;;;;;;5020549;28;20169;-74
2023/06/14 10:49:38;;;;;;;7.40;3.65;;;22.40;53.40;;;;;;5010686;28;20113;-74
2023/06/14 10:52:06;;;;;;;7.80;3.75;;;22.40;52.90;;;;;;5004713;28;20034;-74
2023/06/14 10:54:32;;;;;;;6.32;3.10;;;22.50;53.00;;;;;;5008462;28;20026;-74
2023/06/14 10:56:59;;;;;;;8.63;3.63;;;22.50;53.40;;;;;;5011058;28;20032;-74
2023/06/14 10:59:24;;;;;;;4.95;2.97;;;22.50;53.10;;;;;;5006892;28;20491;-73
2023/06/14 11:02:15;;;;;;;5.47;3.00;;;22.60;52.60;;;;;;5009328;28;20113;-72
2023/06/14 11:04:51;;;;;;;6.93;3.38;;;22.60;52.80;;;;;;5010742;28;20048;-74
2023/06/14 11:07:39;;;;;;;4.75;3.42;;;22.70;52.60;;;;;;5008184;28;20168;-74
2023/06/14 11:10:30;;;;;;;10.57;3.45;;;22.70;52.70;;;;;;5003587;28;20224;-74
2023/06/14 11:12:56;;;;;;;5.93;3.42;;;22.80;52.60;;;;;;5002402;28;20041;-74
2023/06/14 11:15:31;;;;;;;6.38;3.90;;;22.80;52.60;;;;;;5002017;28;20042;-74
2023/06/14 11:17:57;;;;;;;5.97;3.45;;;22.80;52.30;;;;;;5004853;28;20504;-73
2023/06/14 11:20:27;;;;;;;5.35;2.80;;;22.80;53.00;;;;;;4994735;28;20073;-75
2023/06/14 11:22:53;;;;;;;7.15;3.40;;;22.80;53.40;;;;;;5015051;28;20375;-75
2023/06/14 11:25:19;;;;;;;5.72;3.60;;;22.90;53.50;;;;;;4994496;28;20037;-74
2023/06/14 11:27:45;;;;;;;4.60;3.67;;;22.90;53.40;;;;;;5000027;28;20026;-74
2023/06/14 11:30:13;;;;;;;5.85;3.55;;;22.90;53.10;;;;;;5004543;28;20512;-75
2023/06/14 11:32:39;;;;;;;6.80;3.58;;;22.90;53.50;;;;;;4998829;28;20150;-75
2023/06/14 11:35:06;;;;;;;5.15;3.53;;;23.00;53.20;;;;;;5002224;28;20018;-75
2023/06/14 11:37:35;;;;;;;4.93;3.17;;;23.00;52.60;;;;;;5003937;28;20021;-74
2023/06/14 11:40:09;;;;;;;5.97;3.78;;;23.10;52.30;;;;;;5007020;28;20044;-74
2023/06/14 11:42:36;;;;;;;5.57;3.28;;;23.00;52.50;;;;;;5005784;28;20057;-74
2023/06/14 11:45:03;;;;;;;4.47;3.38;;;23.10;52.30;;;;;;5006182;28;20044;-74
2023/06/14 11:47:35;;;;;;;8.85;3.35;;;23.10;52.50;;;;;;5005374;28;20393;-75
2023/06/14 11:50:05;;;;;;;3.70;3.20;;;23.10;52.40;;;;;;5004204;28;20053;-74
2023/06/14 11:52:31;;;;;;;5.72;3.90;;;23.00;52.10;;;;;;5006571;28;20014;-75
2023/06/14 11:54:57;;;;;;;5.80;3.45;;;23.10;51.90;;;;;;5010555;28;20117;-74
2023/06/14 11:57:23;;;;;;;3.78;2.90;;;23.10;52.20;;;;;;5005999;28;20042;-72
2023/06/14 11:59:49;;;;;;;4.82;3.65;;;23.20;52.70;;;;;;5009599;28;20034;-76
2023/06/14 12:02:16;;;;;;;5.80;3.25;;;23.20;52.50;;;;;;5005849;28;20033;-76
2023/06/14 12:04:43;;;;;;;5.20;3.42;;;23.10;52.20;;;;;;5008039;28;20033;-74
2023/06/14 12:07:15;;;;;;;7.45;3.83;;;23.10;52.60;;;;;;5004973;28;20121;-74
2023/06/14 12:10:07;;;;;;;8.20;3.65;;;23.10;52.00;;;;;;5012264;28;20021;-74
2023/06/14 12:12:37;;;;;;;7.47;3.75;;;23.10;52.50;;;;;;5005050;28;20045;-75
2023/06/14 12:15:07;;;;;;;4.78;3.28;;;23.10;52.60;;;;;;5010365;28;20670;-73
2023/06/14 12:17:35;;;;;;;6.68;3.67;;;23.20;51.90;;;;;;5006640;28;20073;-73
2023/06/14 12:20:39;;;;;;;8.63;3.63;;;23.30;51.80;;;;;;5004962;28;20029;-75
2023/06/14 12:23:00;;;;;;;5.32;3.40;;;23.30;50.80;;;;;;5010639;28;20077;-75
2023/06/14 12:25:35;;;;;;;4.97;3.58;;;23.30;51.40;;;;;;5008792;28;20113;-74
2023/06/14 12:28:08;;;;;;;5.38;3.53;;;23.30;51.10;;;;;;5001793;28;20037;-74
2023/06/14 12:30:36;;;;;;;5.78;3.80;;;23.30;51.30;;;;;;5007740;28;20033;-74
2023/06/14 12:33:03;;;;;;;4.78;3.30;;;23.30;51.20;;;;;;5007037;28;20042;-76
2023/06/14 12:35:31;;;;;;;4.70;3.58;;;23.30;51.00;;;;;;5006153;28;20109;-69
2023/06/14 12:37:57;;;;;;;4.63;3.30;;;23.40;50.90;;;;;;5005723;28;20025;-68
2023/06/14 12:40:23;;;;;;;7.55;3.90;;;23.30;51.50;;;;;;4994868;28;20574;-74
2023/06/14 12:42:49;;;;;;;7.32;3.60;;;23.30;51.80;;;;;;4998178;28;20026;-74
2023/06/14 12:45:17;;;;;;;6.88;4.18;;;23.40;52.00;;;;;;5010275;28;20034;-73
2023/06/14 12:47:43;;;;;;;6.97;3.55;;;23.50;52.10;;;;;;5007191;28;20044;-73
2023/06/14 12:50:19;;;;;;;6.78;3.92;;;23.50;51.90;;;;;;5006860;28;20529;-74